createdAt,value
2022-12-13T00:01:57.157Z,-3.60
2022-12-13T00:04:26.777Z,-3.70
2022-12-13T00:06:55.390Z,-3.70
2022-12-13T00:09:24.362Z,-3.70
2022-12-13T00:11:54.622Z,-3.60
2022-12-13T00:14:23.027Z,-3.60
2022-12-13T00:16:51.790Z,-3.60
2022-12-13T00:19:21.481Z,-3.60
2022-12-13T00:21:51.358Z,-3.60
2022-12-13T00:24:19.794Z,-3.60
2022-12-13T00:26:48.208Z,-3.60
2022-12-13T00:29:18.001Z,-3.70
2022-12-13T00:32:00.194Z,-3.70
2022-12-13T00:34:31.125Z,-3.70
2022-12-13T00:36:59.987Z,-3.80
2022-12-13T00:39:28.630Z,-3.80
2022-12-13T00:41:57.426Z,-3.80
2022-12-13T00:44:26.180Z,-3.70
2022-12-13T00:46:54.578Z,-3.70
2022-12-13T00:49:22.855Z,-3.60
2022-12-13T00:51:52.455Z,-3.60
2022-12-13T00:54:32.824Z,-3.60
2022-12-13T00:57:01.139Z,-3.70
2022-12-13T00:59:29.570Z,-3.70
2022-12-13T01:01:58.036Z,-3.70
2022-12-13T01:04:26.205Z,-3.70
2022-12-13T01:06:55.890Z,-3.70
2022-12-13T01:09:27.376Z,-3.60
2022-12-13T01:11:59.757Z,-3.60
2022-12-13T01:14:29.062Z,-3.60
2022-12-13T01:16:57.578Z,-3.60
2022-12-13T01:19:28.546Z,-3.60
2022-12-13T01:21:59.942Z,-3.60
2022-12-13T01:24:29.287Z,-3.60
2022-12-13T01:26:57.690Z,-3.60
2022-12-13T01:29:27.360Z,-3.60
2022-12-13T01:31:55.807Z,-3.50
2022-12-13T01:34:27.434Z,-3.60
2022-12-13T01:36:58.794Z,-3.50
2022-12-13T01:39:28.584Z,-3.50
2022-12-13T01:41:59.662Z,-3.50
2022-12-13T01:45:16.804Z,-3.50
2022-12-13T01:47:49.769Z,-3.50
2022-12-13T01:50:22.920Z,-3.50
2022-12-13T01:52:56.765Z,-3.40
2022-12-13T01:55:42.001Z,-3.40
2022-12-13T01:58:12.675Z,-3.30
2022-12-13T02:00:42.034Z,-3.30
2022-12-13T02:03:21.430Z,-3.20
2022-12-13T02:06:00.569Z,-3.30
2022-12-13T02:08:30.880Z,-3.30
2022-12-13T02:11:06.415Z,-3.30
2022-12-13T02:13:36.808Z,-3.30
2022-12-13T02:16:22.009Z,-3.20
2022-12-13T02:19:14.397Z,-3.10
2022-12-13T02:22:01.523Z,-3.20
2022-12-13T02:24:53.545Z,-3.20
2022-12-13T02:27:44.778Z,-3.20
2022-12-13T02:30:27.052Z,-3.20
2022-12-13T02:33:27.072Z,-3.20
2022-12-13T02:36:09.300Z,-3.10
2022-12-13T02:38:49.554Z,-3.00
2022-12-13T02:41:28.419Z,-3.10
2022-12-13T02:44:03.536Z,-3.20
2022-12-13T02:46:39.703Z,-3.10
2022-12-13T02:49:10.830Z,-3.10
2022-12-13T02:51:41.452Z,-3.10
2022-12-13T02:54:09.649Z,-3.10
2022-12-13T02:56:37.928Z,-3.10
2022-12-13T02:59:14.242Z,-3.00
2022-12-13T03:02:00.807Z,-2.90
2022-12-13T03:05:07.583Z,-2.90
2022-12-13T03:07:47.040Z,-2.90
2022-12-13T03:10:23.204Z,-2.90
2022-12-13T03:13:17.253Z,-2.70
2022-12-13T03:15:56.504Z,-2.70
2022-12-13T03:18:29.830Z,-2.80
2022-12-13T03:21:00.951Z,-2.90
2022-12-13T03:23:29.755Z,-2.90
2022-12-13T03:26:03.875Z,-2.80
2022-12-13T03:28:32.115Z,-2.90
2022-12-13T03:31:00.440Z,-2.90
2022-12-13T03:33:30.170Z,-2.90
2022-12-13T03:35:59.743Z,-2.90
2022-12-13T03:38:29.208Z,-2.80
2022-12-13T03:41:02.715Z,-2.70
2022-12-13T03:43:31.453Z,-2.70
2022-12-13T03:45:59.770Z,-2.70
2022-12-13T03:48:29.460Z,-2.80
2022-12-13T03:50:57.967Z,-2.70
2022-12-13T03:53:34.177Z,-2.70
2022-12-13T03:56:06.453Z,-2.70
2022-12-13T03:58:38.243Z,-2.80
2022-12-13T04:01:09.898Z,-2.80
2022-12-13T04:03:41.937Z,-2.90
2022-12-13T04:06:11.884Z,-2.90
2022-12-13T04:08:41.179Z,-2.90
2022-12-13T04:11:23.896Z,-3.00
2022-12-13T04:13:52.588Z,-3.10
2022-12-13T04:16:20.965Z,-3.00
2022-12-13T04:18:50.745Z,-3.00
2022-12-13T04:21:19.080Z,-3.00
2022-12-13T04:23:47.348Z,-3.00
2022-12-13T04:26:16.013Z,-3.10
2022-12-13T04:28:47.051Z,-3.10
2022-12-13T04:31:19.343Z,-3.10
2022-12-13T04:33:47.724Z,-3.00
2022-12-13T04:36:32.309Z,-3.00
2022-12-13T04:39:02.300Z,-2.80
2022-12-13T04:41:37.011Z,-2.90
2022-12-13T04:44:07.468Z,-2.90
2022-12-13T04:46:55.703Z,-2.80
2022-12-13T04:49:29.962Z,-2.90
2022-12-13T04:52:01.483Z,-2.80
2022-12-13T04:54:36.591Z,-2.80
2022-12-13T04:57:08.418Z,-2.70
2022-12-13T04:59:37.839Z,-2.80
2022-12-13T05:02:08.020Z,-2.70
2022-12-13T05:04:36.547Z,-2.70
2022-12-13T05:07:06.208Z,-2.60
2022-12-13T05:09:34.742Z,-2.60
2022-12-13T05:12:03.118Z,-2.60
2022-12-13T05:14:32.339Z,-2.50
2022-12-13T05:17:01.614Z,-2.50
2022-12-13T05:19:31.273Z,-2.40
2022-12-13T05:22:02.055Z,-2.40
2022-12-13T05:24:32.873Z,-2.30
2022-12-13T05:27:01.560Z,-2.30
2022-12-13T05:29:49.969Z,-2.30
2022-12-13T05:32:18.287Z,-2.20
2022-12-13T05:34:46.576Z,-2.30
2022-12-13T05:37:14.867Z,-2.20
2022-12-13T05:39:44.412Z,-2.10
2022-12-13T05:42:12.609Z,-2.00
2022-12-13T05:44:40.851Z,-2.10
2022-12-13T05:47:09.038Z,-2.10
2022-12-13T05:49:37.240Z,-2.10
2022-12-13T05:52:08.008Z,-2.10
2022-12-13T05:54:36.245Z,-2.10
2022-12-13T05:57:05.928Z,-1.90
2022-12-13T05:59:34.852Z,-2.00
2022-12-13T06:02:03.215Z,-1.90
2022-12-13T06:04:32.091Z,-1.90
2022-12-13T06:07:00.359Z,-1.70
2022-12-13T06:09:28.651Z,-1.60
2022-12-13T06:12:01.050Z,-1.50
2022-12-13T06:14:31.137Z,-1.40
2022-12-13T06:16:59.385Z,-1.30
2022-12-13T06:19:28.048Z,-1.30
2022-12-13T06:21:56.595Z,-1.20
2022-12-13T06:24:25.217Z,-1.20
2022-12-13T06:26:54.446Z,-1.20
2022-12-13T06:29:25.727Z,-1.10
2022-12-13T06:32:02.017Z,-1.10
2022-12-13T06:34:34.408Z,-1.20
2022-12-13T06:37:03.767Z,-1.20
2022-12-13T06:39:38.849Z,-1.30
2022-12-13T06:42:22.135Z,-1.40
2022-12-13T06:44:55.730Z,-1.60
2022-12-13T06:47:32.182Z,-1.60
2022-12-13T06:50:05.315Z,-1.70
2022-12-13T06:52:34.573Z,-1.70
2022-12-13T06:55:02.879Z,-1.80
2022-12-13T06:57:33.648Z,-1.70
2022-12-13T07:00:03.418Z,-1.80
2022-12-13T07:02:33.624Z,-1.80
2022-12-13T07:05:02.669Z,-1.80
2022-12-13T07:07:31.129Z,-1.80
2022-12-13T07:10:00.414Z,-1.80
2022-12-13T07:12:28.607Z,-1.80
2022-12-13T07:14:56.887Z,-1.80
2022-12-13T07:17:34.013Z,-1.80
2022-12-13T07:20:09.143Z,-1.90
2022-12-13T07:22:44.978Z,-1.90
2022-12-13T07:25:27.059Z,-1.80
2022-12-13T07:28:01.209Z,-1.70
2022-12-13T07:30:33.226Z,-1.70
2022-12-13T07:33:02.869Z,-1.70
2022-12-13T07:35:37.036Z,-1.80
2022-12-13T07:38:06.884Z,-1.80
2022-12-13T07:40:35.826Z,-1.80
2022-12-13T07:43:05.981Z,-1.80
2022-12-13T07:45:34.567Z,-1.70
2022-12-13T07:48:06.882Z,-1.70
2022-12-13T07:50:36.889Z,-1.70
2022-12-13T07:53:07.584Z,-1.70
2022-12-13T07:55:36.804Z,-1.60
2022-12-13T07:58:10.182Z,-1.50
2022-12-13T08:00:39.721Z,-1.50
2022-12-13T08:03:11.115Z,-1.60
2022-12-13T08:05:44.768Z,-1.50
2022-12-13T08:08:13.131Z,-1.50
2022-12-13T08:10:41.631Z,-1.40
2022-12-13T08:13:10.888Z,-1.30
2022-12-13T08:15:39.571Z,-1.40
2022-12-13T08:18:07.955Z,-1.40
2022-12-13T08:20:36.230Z,-1.30
2022-12-13T08:23:05.988Z,-1.20
2022-12-13T08:25:34.240Z,-1.20
2022-12-13T08:28:02.819Z,-1.20
2022-12-13T08:30:33.876Z,-1.10
2022-12-13T08:33:04.737Z,-1.20
2022-12-13T08:35:35.122Z,-1.10
2022-12-13T08:38:05.063Z,-1.20
2022-12-13T08:40:34.820Z,-1.30
2022-12-13T08:43:04.008Z,-1.20
2022-12-13T08:45:34.156Z,-1.20
2022-12-13T08:48:03.765Z,-1.10
2022-12-13T08:50:32.598Z,-1.10
2022-12-13T08:53:00.843Z,-1.10
2022-12-13T08:55:31.432Z,-1.10
2022-12-13T08:58:08.351Z,-1.20
2022-12-13T09:00:40.834Z,-1.10
2022-12-13T09:03:09.853Z,-1.10
2022-12-13T09:05:38.951Z,-1.00
2022-12-13T09:08:24.030Z,-0.80
2022-12-13T09:11:10.525Z,-0.90
2022-12-13T09:13:49.612Z,-0.90
2022-12-13T09:16:24.301Z,-0.90
2022-12-13T09:18:55.244Z,-0.90
2022-12-13T09:21:31.028Z,-0.80
2022-12-13T09:24:02.427Z,-0.80
2022-12-13T09:26:37.666Z,-0.70
2022-12-13T09:29:10.850Z,-0.50
2022-12-13T09:31:40.976Z,-0.40
2022-12-13T09:34:10.305Z,-0.50
2022-12-13T09:36:38.789Z,-0.50
2022-12-13T09:39:07.547Z,-0.40
2022-12-13T09:41:41.630Z,-0.40
2022-12-13T09:44:32.293Z,-0.30
2022-12-13T09:47:13.428Z,-0.30
2022-12-13T09:49:52.679Z,-0.30
2022-12-13T09:52:33.294Z,-0.20
2022-12-13T09:55:05.501Z,-0.30
2022-12-13T09:57:39.121Z,-0.30
2022-12-13T10:00:15.817Z,-0.30
2022-12-13T10:02:47.258Z,-0.30
2022-12-13T10:05:34.135Z,-0.30
2022-12-13T10:08:12.993Z,-0.30
2022-12-13T10:10:42.241Z,-0.30
2022-12-13T10:13:21.670Z,-0.30
2022-12-13T10:15:55.709Z,-0.30
2022-12-13T10:18:35.038Z,-0.30
2022-12-13T10:21:08.886Z,-0.20
2022-12-13T10:24:06.977Z,-0.10
2022-12-13T10:26:25.992Z,-0.20
2022-12-13T10:29:06.434Z,-0.10
2022-12-13T10:31:42.453Z,0.00
2022-12-13T10:34:24.368Z,0.00
2022-12-13T10:36:54.148Z,0.20
2022-12-13T10:39:44.032Z,0.10
2022-12-13T10:42:22.805Z,0.30
2022-12-13T10:45:15.066Z,0.20
2022-12-13T10:47:45.480Z,0.30
2022-12-13T10:50:27.036Z,0.40
2022-12-13T10:52:57.796Z,0.50
2022-12-13T10:55:31.740Z,0.50
2022-12-13T10:58:06.998Z,0.50
2022-12-13T11:00:42.426Z,0.50
2022-12-13T11:03:30.159Z,0.30
2022-12-13T11:06:07.201Z,0.20
2022-12-13T11:08:35.733Z,0.30
2022-12-13T11:11:07.013Z,0.30
2022-12-13T11:13:41.455Z,0.70
2022-12-13T11:16:25.413Z,0.70
2022-12-13T11:18:58.998Z,0.80
2022-12-13T11:21:30.673Z,0.80
2022-12-13T11:24:03.469Z,0.70
2022-12-13T11:26:37.339Z,0.60
2022-12-13T11:29:31.380Z,0.60
2022-12-13T11:32:22.577Z,0.50
2022-12-13T11:35:03.131Z,0.40
2022-12-13T11:37:43.244Z,0.50
2022-12-13T11:40:18.100Z,0.60
2022-12-13T11:42:53.935Z,0.50
2022-12-13T11:45:31.722Z,0.50
2022-12-13T11:48:11.291Z,0.50
2022-12-13T11:50:45.867Z,0.50
2022-12-13T11:53:28.149Z,0.40
2022-12-13T11:56:07.230Z,0.70
2022-12-13T11:59:02.473Z,0.60
2022-12-13T12:01:41.098Z,0.50
2022-12-13T12:04:22.640Z,0.50
2022-12-13T12:07:17.859Z,0.50
2022-12-13T12:09:58.476Z,0.50
2022-12-13T12:12:34.629Z,0.50
2022-12-13T12:15:15.519Z,0.50
2022-12-13T12:17:45.050Z,0.40
2022-12-13T12:20:24.168Z,0.50
2022-12-13T12:23:08.654Z,0.50
2022-12-13T12:25:48.842Z,0.50
2022-12-13T12:28:34.804Z,0.50
2022-12-13T12:31:18.996Z,0.40
2022-12-13T12:34:02.947Z,0.50
2022-12-13T12:36:51.481Z,0.50
2022-12-13T12:39:41.277Z,0.40
2022-12-13T12:42:50.182Z,0.40
2022-12-13T12:45:56.902Z,0.50
2022-12-13T12:49:01.386Z,0.40
2022-12-13T12:51:44.628Z,0.40
2022-12-13T12:54:36.391Z,0.40
2022-12-13T12:57:15.210Z,0.50
2022-12-13T13:00:02.059Z,0.50
2022-12-13T13:02:41.159Z,0.60
2022-12-13T13:05:22.098Z,0.60
2022-12-13T13:08:00.450Z,0.60
2022-12-13T13:10:30.274Z,0.60
2022-12-13T13:13:11.514Z,0.60
2022-12-13T13:15:58.333Z,0.60
2022-12-13T13:18:50.374Z,0.60
2022-12-13T13:21:48.549Z,0.60
2022-12-13T13:24:24.614Z,0.70
2022-12-13T13:26:56.998Z,0.70
2022-12-13T13:29:38.136Z,0.70
2022-12-13T13:32:30.218Z,0.60
2022-12-13T13:35:54.356Z,0.70
2022-12-13T13:39:01.601Z,0.70
2022-12-13T13:42:08.680Z,0.70
2022-12-13T13:45:21.494Z,0.70
2022-12-13T13:48:15.232Z,0.60
2022-12-13T13:52:24.433Z,0.60
2022-12-13T13:55:29.731Z,0.60
2022-12-13T13:58:49.917Z,0.60
2022-12-13T14:02:09.272Z,0.60
2022-12-13T14:05:23.603Z,0.50
2022-12-13T14:08:24.116Z,0.50
2022-12-13T14:11:17.498Z,0.50
2022-12-13T14:14:38.365Z,0.50
2022-12-13T14:18:03.887Z,0.50
2022-12-13T14:21:18.601Z,0.50
2022-12-13T14:24:08.213Z,0.40
2022-12-13T14:26:52.984Z,0.40
2022-12-13T14:29:29.825Z,0.30
2022-12-13T14:31:58.914Z,0.40
2022-12-13T14:34:31.995Z,0.30
2022-12-13T14:37:02.431Z,0.40
2022-12-13T14:39:34.017Z,0.30
2022-12-13T14:42:21.451Z,0.30
2022-12-13T14:44:49.656Z,0.20
2022-12-13T14:47:18.836Z,0.20
2022-12-13T14:49:55.409Z,0.20
2022-12-13T14:52:27.796Z,0.20
2022-12-13T14:55:00.331Z,0.20
2022-12-13T14:57:32.358Z,0.20
2022-12-13T15:00:03.461Z,0.10
2022-12-13T15:02:38.306Z,0.10
2022-12-13T15:05:08.528Z,0.00
2022-12-13T15:07:40.186Z,0.10
2022-12-13T15:10:24.295Z,0.00
2022-12-13T15:12:54.675Z,0.00
2022-12-13T15:15:29.036Z,-0.10
2022-12-13T15:18:18.102Z,-0.10
2022-12-13T15:20:52.135Z,-0.20
2022-12-13T15:23:32.757Z,-0.20
2022-12-13T15:26:29.486Z,-0.30
2022-12-13T15:29:10.336Z,-0.30
2022-12-13T15:31:39.999Z,-0.30
2022-12-13T15:34:37.162Z,-0.40
2022-12-13T15:37:29.076Z,-0.50
2022-12-13T15:40:06.323Z,-0.50
2022-12-13T15:42:37.927Z,-0.50
2022-12-13T15:45:21.867Z,-0.60
2022-12-13T15:47:51.251Z,-0.70
2022-12-13T15:50:35.300Z,-0.80
2022-12-13T15:53:23.862Z,-0.80
2022-12-13T15:55:55.502Z,-0.90
2022-12-13T15:58:32.509Z,-0.90
2022-12-13T16:01:05.115Z,-1.00
2022-12-13T16:03:43.385Z,-0.80
2022-12-13T16:06:22.021Z,-0.70
2022-12-13T16:08:55.700Z,-0.70
2022-12-13T16:11:42.812Z,-0.80
2022-12-13T16:14:39.952Z,-0.90
2022-12-13T16:17:25.593Z,-1.10
2022-12-13T16:19:56.421Z,-1.10
2022-12-13T16:22:24.711Z,-1.20
2022-12-13T16:24:56.309Z,-1.30
2022-12-13T16:27:24.945Z,-1.40
2022-12-13T16:29:53.135Z,-1.40
2022-12-13T16:32:21.487Z,-1.50
2022-12-13T16:34:50.577Z,-1.60
2022-12-13T16:37:25.694Z,-1.50
2022-12-13T16:40:01.830Z,-1.60
2022-12-13T16:42:30.131Z,-1.70
2022-12-13T16:45:18.151Z,-1.60
2022-12-13T16:47:49.881Z,-1.70
2022-12-13T16:50:21.289Z,-1.70
2022-12-13T16:52:50.180Z,-1.70
2022-12-13T16:55:19.861Z,-1.70
2022-12-13T16:57:58.041Z,-1.80
2022-12-13T17:00:26.734Z,-1.90
2022-12-13T17:02:55.375Z,-1.90
2022-12-13T17:05:25.281Z,-1.80
2022-12-13T17:07:53.861Z,-1.90
2022-12-13T17:10:24.232Z,-1.90
2022-12-13T17:12:52.441Z,-1.90
2022-12-13T17:15:20.840Z,-1.90
2022-12-13T17:17:49.632Z,-1.70
2022-12-13T17:20:19.813Z,-1.70
2022-12-13T17:22:48.137Z,-1.70
2022-12-13T17:25:16.479Z,-1.70
2022-12-13T17:27:46.285Z,-1.70
2022-12-13T17:30:18.925Z,-1.70
2022-12-13T17:32:47.467Z,-1.80
2022-12-13T17:35:18.321Z,-1.80
2022-12-13T17:37:47.658Z,-1.80
2022-12-13T17:40:17.682Z,-1.80
2022-12-13T17:42:50.595Z,-1.80
2022-12-13T17:45:20.480Z,-1.70
2022-12-13T17:47:48.850Z,-1.60
2022-12-13T17:50:17.284Z,-1.60
2022-12-13T17:52:45.540Z,-1.60
2022-12-13T17:55:18.353Z,-1.60
2022-12-13T17:57:48.491Z,-1.50
2022-12-13T18:00:17.897Z,-1.50
2022-12-13T18:02:55.818Z,-1.50
2022-12-13T18:05:26.317Z,-1.50
2022-12-13T18:07:54.807Z,-1.50
2022-12-13T18:10:29.272Z,-1.60
2022-12-13T18:12:59.971Z,-1.70
2022-12-13T18:15:28.768Z,-1.70
2022-12-13T18:18:11.257Z,-1.80
2022-12-13T18:20:40.331Z,-1.80
2022-12-13T18:23:08.712Z,-1.90
2022-12-13T18:25:37.000Z,-1.90
2022-12-13T18:28:06.929Z,-1.90
2022-12-13T18:30:35.325Z,-1.90
2022-12-13T18:33:04.034Z,-1.90
2022-12-13T18:35:33.014Z,-2.00
2022-12-13T18:38:01.326Z,-2.00
2022-12-13T18:40:29.595Z,-2.00
2022-12-13T18:42:57.910Z,-2.10
2022-12-13T18:45:27.673Z,-2.10
2022-12-13T18:47:56.138Z,-2.00
2022-12-13T18:50:25.230Z,-2.10
2022-12-13T18:52:53.525Z,-2.00
2022-12-13T18:55:21.809Z,-2.10
2022-12-13T18:57:52.558Z,-2.10
2022-12-13T19:00:21.507Z,-2.10
2022-12-13T19:02:51.297Z,-2.10
2022-12-13T19:05:19.700Z,-2.20
2022-12-13T19:07:48.256Z,-2.20
2022-12-13T19:10:16.727Z,-2.30
2022-12-13T19:12:45.040Z,-2.30
2022-12-13T19:15:15.037Z,-2.30
2022-12-13T19:17:43.512Z,-2.30
2022-12-13T19:20:13.759Z,-2.30
2022-12-13T19:22:42.117Z,-2.30
2022-12-13T19:25:11.380Z,-2.30
2022-12-13T19:27:39.640Z,-2.30
2022-12-13T19:30:09.644Z,-2.30
2022-12-13T19:32:37.857Z,-2.30
2022-12-13T19:35:07.207Z,-2.30
2022-12-13T19:37:37.811Z,-2.40
2022-12-13T19:40:07.513Z,-2.30
2022-12-13T19:42:35.722Z,-2.30
2022-12-13T19:45:03.967Z,-2.30
2022-12-13T19:47:32.232Z,-2.30
2022-12-13T19:50:00.526Z,-2.40
2022-12-13T19:52:28.741Z,-2.30
2022-12-13T19:54:58.456Z,-2.30
2022-12-13T19:57:26.971Z,-2.40
2022-12-13T19:59:55.176Z,-2.40
2022-12-13T20:02:23.464Z,-2.40
2022-12-13T20:04:52.110Z,-2.40
2022-12-13T20:07:20.621Z,-2.40
2022-12-13T20:09:48.977Z,-2.50
2022-12-13T20:12:18.661Z,-2.40
2022-12-13T20:14:46.898Z,-2.50
2022-12-13T20:17:15.429Z,-2.40
2022-12-13T20:19:43.685Z,-2.30
2022-12-13T20:22:12.061Z,-2.40
2022-12-13T20:24:40.301Z,-2.50
2022-12-13T20:27:08.557Z,-2.60
2022-12-13T20:29:38.899Z,-2.60
2022-12-13T20:32:07.273Z,-2.60
2022-12-13T20:34:35.744Z,-2.60
2022-12-13T20:37:04.833Z,-2.60
2022-12-13T20:39:33.076Z,-2.70
2022-12-13T20:42:01.238Z,-2.70
2022-12-13T20:44:33.317Z,-2.70
2022-12-13T20:47:03.168Z,-2.70
2022-12-13T20:49:31.441Z,-2.70
2022-12-13T20:51:59.726Z,-2.70
2022-12-13T20:54:28.059Z,-2.70
2022-12-13T20:56:56.349Z,-2.70
2022-12-13T20:59:24.573Z,-2.70
2022-12-13T21:01:52.937Z,-2.70
2022-12-13T21:04:22.724Z,-2.70
2022-12-13T21:06:51.051Z,-2.70
2022-12-13T21:09:19.588Z,-2.70
2022-12-13T21:11:50.766Z,-2.70
2022-12-13T21:14:23.340Z,-2.70
2022-12-13T21:16:54.962Z,-2.70
2022-12-13T21:19:27.107Z,-2.70
2022-12-13T21:21:57.108Z,-2.80
2022-12-13T21:24:29.195Z,-2.80
2022-12-13T21:26:57.600Z,-2.80
2022-12-13T21:29:25.922Z,-2.90
2022-12-13T21:31:54.701Z,-2.90
2022-12-13T21:34:25.140Z,-2.90
2022-12-13T21:36:54.278Z,-2.90
2022-12-13T21:39:27.579Z,-2.90
2022-12-13T21:41:55.945Z,-3.00
2022-12-13T21:44:24.642Z,-3.00
2022-12-13T21:49:48.645Z,-3.00
2022-12-13T21:52:17.977Z,-3.00
2022-12-13T21:54:46.296Z,-3.00
2022-12-13T21:57:31.979Z,-3.00
2022-12-13T22:00:00.256Z,-3.00
2022-12-13T22:02:28.638Z,-3.00
2022-12-13T22:04:59.770Z,-2.90
2022-12-13T22:07:30.897Z,-2.90
2022-12-13T22:10:01.685Z,-2.90
2022-12-13T22:12:37.917Z,-2.80
2022-12-13T22:15:09.934Z,-2.90
2022-12-13T22:17:39.062Z,-2.90
2022-12-13T22:20:12.720Z,-3.00
2022-12-13T22:22:42.851Z,-3.00
2022-12-13T22:25:11.873Z,-3.00
2022-12-13T22:27:40.127Z,-3.00
2022-12-13T22:30:12.241Z,-3.00
2022-12-13T22:32:40.553Z,-3.00
2022-12-13T22:35:11.731Z,-2.90
2022-12-13T22:37:40.381Z,-3.00
2022-12-13T22:40:10.536Z,-3.00
2022-12-13T22:42:38.807Z,-3.00
2022-12-13T22:45:08.306Z,-3.00
2022-12-13T22:47:36.471Z,-3.00
2022-12-13T22:50:05.298Z,-3.00
2022-12-13T22:52:35.334Z,-3.10
2022-12-13T22:55:03.770Z,-3.00
2022-12-13T22:57:32.142Z,-3.10
2022-12-13T23:00:00.501Z,-3.10
2022-12-13T23:02:28.787Z,-3.20
2022-12-13T23:04:57.059Z,-3.20
2022-12-13T23:07:25.375Z,-3.20
2022-12-13T23:09:54.956Z,-3.20
2022-12-13T23:12:40.955Z,-3.20
2022-12-13T23:15:11.174Z,-3.30
2022-12-13T23:17:39.359Z,-3.30
2022-12-13T23:20:09.880Z,-3.30
2022-12-13T23:22:38.108Z,-3.30
2022-12-13T23:25:09.113Z,-3.30
2022-12-13T23:27:37.443Z,-3.20
2022-12-13T23:30:06.965Z,-3.20
2022-12-13T23:32:35.121Z,-3.10
2022-12-13T23:35:03.330Z,-3.20
2022-12-13T23:37:31.505Z,-3.30
2022-12-13T23:39:59.687Z,-3.40
2022-12-13T23:42:31.673Z,-3.30
2022-12-13T23:44:59.916Z,-3.40
2022-12-13T23:47:28.505Z,-3.40
2022-12-13T23:49:56.816Z,-3.30
2022-12-13T23:52:25.211Z,-3.40
2022-12-13T23:54:53.812Z,-3.30
2022-12-13T23:57:21.997Z,-3.30
2022-12-13T23:59:51.759Z,-3.30
